Time,TemperatureF,DewpointF,PressureIn,WindDirection,WindDirectionDegrees,WindSpeedMPH,WindSpeedGustMPH,Humidity,HourlyPrecipIn,Conditions,Clouds,dailyrainin,SolarRadiationWatts/m^2,SoftwareType,DateUTC
2013-02-04 00:03:00,28.0,22.0,-100.00,North,4,3.0,5.0,78,0.00,,,0.02,0.000000,,2013-02-04 05:03:00,
2013-02-04 00:33:00,26.0,22.0,-100.00,SSE,158,0.0,1.0,86,0.00,,,0.02,0.000000,,2013-02-04 05:33:00,
2013-02-04 00:42:00,26.0,22.0,-100.00,SSE,158,0.0,1.0,86,0.00,,,0.02,0.000000,,2013-02-04 05:42:00,
2013-02-04 00:52:00,26.0,22.0,-100.00,SSE,158,0.0,1.0,86,0.00,,,0.02,0.000000,,2013-02-04 05:52:00,
2013-02-04 01:02:00,26.0,22.0,-100.00,SSE,158,0.0,1.0,86,0.00,,,0.02,0.000000,,2013-02-04 06:02:00,
2013-02-04 01:32:00,25.0,23.0,-100.00,South,187,0.0,0.0,92,0.00,,,0.02,0.000000,,2013-02-04 06:32:00,
2013-02-04 01:42:00,25.0,23.0,-100.00,South,187,0.0,0.0,92,0.00,,,0.02,0.000000,,2013-02-04 06:42:00,
2013-02-04 01:52:00,25.0,23.0,-100.00,South,187,0.0,0.0,92,0.00,,,0.02,0.000000,,2013-02-04 06:52:00,
2013-02-04 02:02:00,25.0,23.0,-100.00,South,187,0.0,0.0,92,0.00,,,0.02,0.000000,,2013-02-04 07:02:00,
2013-02-04 02:32:00,24.0,22.0,-100.00,NW,324,0.0,0.0,93,0.00,,,0.02,0.000000,,2013-02-04 07:32:00,
2013-02-04 02:42:00,24.0,22.0,-100.00,NW,324,0.0,0.0,93,0.00,,,0.02,0.000000,,2013-02-04 07:42:00,
2013-02-04 02:52:00,24.0,22.0,-100.00,NW,324,0.0,0.0,93,0.00,,,0.02,0.000000,,2013-02-04 07:52:00,
2013-02-04 03:01:00,24.0,22.0,-100.00,NW,324,0.0,0.0,93,0.00,,,0.02,0.000000,,2013-02-04 08:01:00,
2013-02-04 03:32:00,23.0,21.0,-100.00,SSE,151,0.0,0.0,92,0.00,,,0.02,0.000000,,2013-02-04 08:32:00,
2013-02-04 03:42:00,23.0,21.0,-100.00,SSE,151,0.0,0.0,92,0.00,,,0.02,0.000000,,2013-02-04 08:42:00,
2013-02-04 03:52:00,23.0,21.0,-100.00,SSE,151,0.0,0.0,92,0.00,,,0.02,0.000000,,2013-02-04 08:52:00,
2013-02-04 04:02:00,23.0,21.0,-100.00,SSE,151,0.0,0.0,92,0.00,,,0.02,0.000000,,2013-02-04 09:02:00,
2013-02-04 04:32:00,23.0,21.0,-100.00,WNW,286,0.0,0.0,92,0.00,,,0.02,0.000000,,2013-02-04 09:32:00,
2013-02-04 04:42:00,23.0,21.0,-100.00,WNW,286,0.0,0.0,92,0.00,,,0.02,0.000000,,2013-02-04 09:42:00,
2013-02-04 04:52:00,23.0,21.0,-100.00,WNW,286,0.0,0.0,92,0.00,,,0.02,0.000000,,2013-02-04 09:52:00,
2013-02-04 05:01:00,23.0,21.0,-100.00,WNW,286,0.0,0.0,92,0.00,,,0.02,0.000000,,2013-02-04 10:01:00,
2013-02-04 05:32:00,22.0,20.0,-100.00,WSW,240,0.0,0.0,92,0.00,,,0.02,0.000000,,2013-02-04 10:32:00,
2013-02-04 05:42:00,22.0,20.0,-100.00,WSW,240,0.0,0.0,92,0.00,,,0.02,0.000000,,2013-02-04 10:42:00,
2013-02-04 05:52:00,22.0,20.0,-100.00,WSW,240,0.0,0.0,92,0.00,,,0.02,0.000000,,2013-02-04 10:52:00,
2013-02-04 06:02:00,22.0,20.0,-100.00,WSW,240,0.0,0.0,92,0.00,,,0.02,0.000000,,2013-02-04 11:02:00,
2013-02-04 06:33:00,22.0,20.0,-100.00,North,5,3.0,4.0,91,0.00,,,0.02,0.000000,,2013-02-04 11:33:00,
2013-02-04 06:42:00,22.0,20.0,-100.00,North,5,3.0,4.0,91,0.00,,,0.02,0.000000,,2013-02-04 11:42:00,
2013-02-04 06:52:00,22.0,20.0,-100.00,North,5,3.0,4.0,91,0.00,,,0.02,0.000000,,2013-02-04 11:52:00,
2013-02-04 07:02:00,22.0,20.0,-100.00,North,5,3.0,4.0,91,0.00,,,0.02,0.000000,,2013-02-04 12:02:00,
2013-02-04 07:33:00,22.0,20.0,-100.00,SSE,159,1.0,4.0,91,0.00,,,0.02,0.000000,,2013-02-04 12:33:00,
2013-02-04 07:42:00,22.0,20.0,-100.00,SSE,159,1.0,4.0,91,0.00,,,0.02,0.000000,,2013-02-04 12:42:00,
2013-02-04 07:53:00,22.0,20.0,-100.00,SSE,159,1.0,4.0,91,0.00,,,0.02,0.000000,,2013-02-04 12:53:00,
2013-02-04 08:03:00,22.0,20.0,-100.00,SSE,159,1.0,4.0,91,0.00,,,0.02,0.000000,,2013-02-04 13:03:00,
2013-02-04 08:33:00,24.0,22.0,-100.00,SW,233,1.0,3.0,91,0.00,,,0.02,7.000000,,2013-02-04 13:33:00,
2013-02-04 08:42:00,24.0,22.0,-100.00,SW,233,1.0,3.0,91,0.00,,,0.02,7.000000,,2013-02-04 13:42:00,
2013-02-04 08:52:00,24.0,22.0,-100.00,SW,233,1.0,3.0,91,0.00,,,0.02,7.000000,,2013-02-04 13:52:00,
2013-02-04 09:03:00,24.0,22.0,-100.00,SW,233,1.0,3.0,91,0.00,,,0.02,7.000000,,2013-02-04 14:03:00,
2013-02-04 09:33:00,27.0,25.0,-100.00,WSW,254,0.0,3.0,91,0.00,,,0.00,47.000000,,2013-02-04 14:33:00,
2013-02-04 09:42:00,27.0,25.0,-100.00,WSW,254,0.0,3.0,91,0.00,,,0.00,47.000000,,2013-02-04 14:42:00,
2013-02-04 09:53:00,27.0,25.0,-100.00,WSW,254,0.0,3.0,91,0.00,,,0.00,47.000000,,2013-02-04 14:53:00,
2013-02-04 10:03:00,27.0,25.0,-100.00,WSW,254,0.0,3.0,91,0.00,,,0.00,47.000000,,2013-02-04 15:03:00,
2013-02-04 10:33:00,32.0,29.0,-100.00,WSW,241,3.0,5.0,88,0.00,,,0.00,171.000000,,2013-02-04 15:33:00,
2013-02-04 10:43:00,32.0,29.0,-100.00,WSW,241,3.0,5.0,88,0.00,,,0.00,171.000000,,2013-02-04 15:43:00,
2013-02-04 10:53:00,32.0,29.0,-100.00,WSW,241,3.0,5.0,88,0.00,,,0.00,171.000000,,2013-02-04 15:53:00,
2013-02-04 11:03:00,32.0,29.0,-100.00,WSW,241,3.0,5.0,88,0.00,,,0.00,171.000000,,2013-02-04 16:03:00,
2013-02-04 13:33:00,42.0,27.0,-100.00,SSW,207,5.0,8.0,56,-99.99,,,0.00,281.000000,,2013-02-04 18:33:00,
2013-02-04 13:42:00,42.0,27.0,-100.00,SSW,207,5.0,8.0,56,-99.99,,,0.00,281.000000,,2013-02-04 18:42:00,
2013-02-04 13:52:00,42.0,27.0,-100.00,SSW,207,5.0,8.0,56,-99.99,,,0.00,281.000000,,2013-02-04 18:52:00,
2013-02-04 14:02:00,42.0,27.0,-100.00,SSW,207,5.0,8.0,56,-99.99,,,0.00,281.000000,,2013-02-04 19:02:00,
2013-02-04 14:32:00,44.0,28.0,-100.00,SSW,207,8.0,12.0,53,0.00,,,0.00,266.000000,,2013-02-04 19:32:00,
2013-02-04 14:42:00,44.0,28.0,-100.00,SSW,207,8.0,12.0,53,0.00,,,0.00,266.000000,,2013-02-04 19:42:00,
2013-02-04 14:52:00,44.0,28.0,-100.00,SSW,207,8.0,12.0,53,0.00,,,0.00,266.000000,,2013-02-04 19:52:00,
2013-02-04 15:02:00,44.0,28.0,-100.00,SSW,207,8.0,12.0,53,0.00,,,0.00,266.000000,,2013-02-04 20:02:00,
2013-02-04 16:32:00,47.0,28.0,-100.00,SW,227,5.0,7.0,48,-99.99,,,0.00,232.000000,,2013-02-04 21:32:00,
2013-02-04 16:43:00,47.0,28.0,-100.00,SW,227,5.0,7.0,48,-99.99,,,0.00,232.000000,,2013-02-04 21:43:00,
2013-02-04 16:52:00,47.0,28.0,-100.00,SW,227,5.0,7.0,48,-99.99,,,0.00,232.000000,,2013-02-04 21:52:00,
2013-02-04 17:03:00,47.0,28.0,-100.00,SW,227,5.0,7.0,48,-99.99,,,0.00,232.000000,,2013-02-04 22:03:00,
2013-02-04 17:33:00,48.0,29.0,-100.00,SW,229,4.0,8.0,48,0.00,,,0.00,116.000000,,2013-02-04 22:33:00,
2013-02-04 17:42:00,48.0,29.0,-100.00,SW,229,4.0,8.0,48,0.00,,,0.00,116.000000,,2013-02-04 22:42:00,
2013-02-04 17:52:00,48.0,29.0,-100.00,SW,229,4.0,8.0,48,0.00,,,0.00,116.000000,,2013-02-04 22:52:00,
2013-02-04 18:02:00,48.0,29.0,-100.00,SW,229,4.0,8.0,48,0.00,,,0.00,116.000000,,2013-02-04 23:02:00,
2013-02-04 18:32:00,43.0,28.0,-100.00,SSE,148,2.0,7.0,54,0.00,,,0.00,57.000000,,2013-02-04 23:32:00,
2013-02-04 18:42:00,43.0,28.0,-100.00,SSE,148,2.0,7.0,54,0.00,,,0.00,57.000000,,2013-02-04 23:42:00,
2013-02-04 18:52:00,43.0,28.0,-100.00,SSE,148,2.0,7.0,54,0.00,,,0.00,57.000000,,2013-02-04 23:52:00,
2013-02-04 19:02:00,43.0,28.0,-100.00,SSE,148,2.0,7.0,54,0.00,,,0.00,57.000000,,2013-02-05 00:02:00,
2013-02-04 19:32:00,42.0,30.0,-100.00,SSW,210,3.0,6.0,61,0.00,,,0.00,1.000000,,2013-02-05 00:32:00,
2013-02-04 19:42:00,42.0,30.0,-100.00,SSW,210,3.0,6.0,61,0.00,,,0.00,1.000000,,2013-02-05 00:42:00,
2013-02-04 19:52:00,42.0,30.0,-100.00,SSW,210,3.0,6.0,61,0.00,,,0.00,1.000000,,2013-02-05 00:52:00,
2013-02-04 20:02:00,42.0,30.0,-100.00,SSW,210,3.0,6.0,61,0.00,,,0.00,1.000000,,2013-02-05 01:02:00,
2013-02-04 20:33:00,45.0,25.0,-100.00,SSW,207,7.0,12.0,46,0.00,,,0.00,0.000000,,2013-02-05 01:33:00,
2013-02-04 20:42:00,45.0,25.0,-100.00,SSW,207,7.0,12.0,46,0.00,,,0.00,0.000000,,2013-02-05 01:42:00,
2013-02-04 20:52:00,45.0,25.0,-100.00,SSW,207,7.0,12.0,46,0.00,,,0.00,0.000000,,2013-02-05 01:52:00,
2013-02-04 21:02:00,45.0,25.0,-100.00,SSW,207,7.0,12.0,46,0.00,,,0.00,0.000000,,2013-02-05 02:02:00,
2013-02-04 21:32:00,45.0,27.0,-100.00,SSW,195,6.0,14.0,49,0.00,,,0.00,0.000000,,2013-02-05 02:32:00,
2013-02-04 21:42:00,45.0,27.0,-100.00,SSW,195,6.0,14.0,49,0.00,,,0.00,0.000000,,2013-02-05 02:42:00,
2013-02-04 21:52:00,45.0,27.0,-100.00,SSW,195,6.0,14.0,49,0.00,,,0.00,0.000000,,2013-02-05 02:52:00,
2013-02-04 22:02:00,45.0,27.0,-100.00,SSW,195,6.0,14.0,49,0.00,,,0.00,0.000000,,2013-02-05 03:02:00,
2013-02-04 22:32:00,44.0,28.0,-100.00,SSW,208,5.0,10.0,53,0.00,,,0.00,0.000000,,2013-02-05 03:32:00,
2013-02-04 22:42:00,44.0,28.0,-100.00,SSW,208,5.0,10.0,53,0.00,,,0.00,0.000000,,2013-02-05 03:42:00,
2013-02-04 22:52:00,44.0,28.0,-100.00,SSW,208,5.0,10.0,53,0.00,,,0.00,0.000000,,2013-02-05 03:52:00,
2013-02-04 23:01:00,44.0,28.0,-100.00,SSW,208,5.0,10.0,53,0.00,,,0.00,0.000000,,2013-02-05 04:01:00,
2013-02-04 23:32:00,45.0,29.0,-100.00,SSW,211,5.0,9.0,53,0.00,,,0.00,0.000000,,2013-02-05 04:32:00,
2013-02-04 23:42:00,45.0,29.0,-100.00,SSW,211,5.0,9.0,53,0.00,,,0.00,0.000000,,2013-02-05 04:42:00,
2013-02-04 23:52:00,45.0,29.0,-100.00,SSW,211,5.0,9.0,53,0.00,,,0.00,0.000000,,2013-02-05 04:52:00,